Time;durP1;ratioP1;P1;durP2;ratioP2;P2;SDS_P1;SDS_P2;PMS_P1;PMS_P2;Temp;Humidity;BMP_temperature;BMP_pressure;BME280_temperature;BME280_humidity;BME280_pressure;Samples;Min_cycle;Max_cycle;Signal;HPM_P1;HPM_P2
2022/07/23 00:02:14;;;;;;;4.03;1.70;;;;;;;15.27;100.00;101584.84;6202415;28;20050;-78
2022/07/23 00:05:15;;;;;;;4.32;2.15;;;;;;;15.22;100.00;101587.78;6201382;28;20053;-77
2022/07/23 00:08:18;;;;;;;2.50;1.70;;;;;;;15.19;100.00;101586.16;6201122;28;20518;-77
2022/07/23 00:11:19;;;;;;;3.28;1.90;;;;;;;15.17;100.00;101581.88;6200911;28;20050;-77
2022/07/23 00:14:21;;;;;;;1.98;1.55;;;;;;;15.14;100.00;101574.13;6201011;28;20050;-77
2022/07/23 00:17:22;;;;;;;2.97;2.20;;;;;;;15.10;100.00;101581.38;6201075;28;20502;-77
2022/07/23 00:20:23;;;;;;;3.03;1.83;;;;;;;15.08;100.00;101570.06;6200971;28;20047;-77
2022/07/23 00:23:27;;;;;;;3.03;1.70;;;;;;;15.07;100.00;101578.91;6200765;28;20391;-77
2022/07/23 00:26:28;;;;;;;4.05;2.17;;;;;;;15.01;100.00;101576.63;6200794;28;20129;-77
2022/07/23 00:29:30;;;;;;;4.90;2.20;;;;;;;14.95;100.00;101574.34;6200594;28;20058;-77
2022/07/23 00:32:31;;;;;;;2.72;2.03;;;;;;;14.94;100.00;101573.50;6202645;28;20051;-77
2022/07/23 00:35:37;;;;;;;3.97;1.90;;;;;;;14.94;100.00;101585.88;6227865;28;20442;-77
2022/07/23 00:38:40;;;;;;;2.25;1.60;;;;;;;14.93;100.00;101582.38;6248073;28;20050;-77
2022/07/23 00:41:42;;;;;;;3.33;1.80;;;;;;;14.95;100.00;101585.78;6224856;28;20050;-77
2022/07/23 00:44:43;;;;;;;2.90;1.85;;;;;;;14.94;100.00;101591.16;6225018;28;20041;-77
2022/07/23 00:47:44;;;;;;;4.93;1.90;;;;;;;14.94;100.00;101588.50;6240598;28;20109;-77
2022/07/23 00:50:46;;;;;;;3.25;1.80;;;;;;;14.97;100.00;101577.75;6248658;28;20049;-77
2022/07/23 00:53:48;;;;;;;3.67;1.58;;;;;;;14.96;100.00;101576.91;6248481;28;20519;-77
2022/07/23 00:56:50;;;;;;;3.03;1.63;;;;;;;14.93;100.00;101570.94;6248842;28;20052;-77
2022/07/23 00:59:51;;;;;;;4.15;1.85;;;;;;;14.86;100.00;101564.31;6236733;28;20050;-77
2022/07/23 01:02:53;;;;;;;2.03;1.38;;;;;;;14.83;100.00;101553.88;6212871;28;20058;-77
2022/07/23 01:05:54;;;;;;;3.63;1.70;;;;;;;14.81;100.00;101543.41;6200072;28;20046;-77
2022/07/23 01:08:57;;;;;;;3.22;1.30;;;;;;;14.82;100.00;101546.91;6199704;28;20046;-77
2022/07/23 01:11:59;;;;;;;2.22;1.63;;;;;;;14.83;100.00;101560.03;6199632;28;20050;-77
2022/07/23 01:15:01;;;;;;;2.08;1.73;;;;;;;14.83;100.00;101559.19;6201281;28;20050;-77
2022/07/23 01:18:04;;;;;;;2.00;1.48;;;;;;;14.82;100.00;101562.78;6235339;28;20042;-77
2022/07/23 01:21:06;;;;;;;3.63;2.10;;;;;;;14.81;100.00;101566.38;6247713;28;20057;-77
2022/07/23 01:24:10;;;;;;;1.50;1.33;;;;;;;14.78;100.00;101564.75;6248195;28;20053;-77
2022/07/23 01:27:12;;;;;;;3.05;2.33;;;;;;;14.78;100.00;101571.84;6247844;28;20052;-77
2022/07/23 01:30:14;;;;;;;2.13;1.77;;;;;;;14.74;100.00;101579.09;6248208;28;20056;-77
2022/07/23 01:33:15;;;;;;;2.13;1.85;;;;;;;14.76;100.00;101579.88;6214091;28;20055;-77
2022/07/23 01:36:17;;;;;;;2.85;1.70;;;;;;;14.78;100.00;101583.28;6199062;28;20043;-77
2022/07/23 01:39:19;;;;;;;2.28;1.67;;;;;;;14.83;100.00;101567.97;6198922;28;20457;-77
2022/07/23 01:42:21;;;;;;;3.75;2.08;;;;;;;14.90;100.00;101571.97;6200022;28;20050;-77
2022/07/23 01:45:22;;;;;;;4.78;2.05;;;;;;;14.92;100.00;101567.44;6198786;28;20073;-77
2022/07/23 01:48:23;;;;;;;3.00;1.80;;;;;;;14.91;100.00;101571.03;6198644;28;20057;-77
2022/07/23 01:51:25;;;;;;;1.73;1.42;;;;;;;14.90;100.00;101556.09;6198720;28;20057;-77
2022/07/23 01:54:27;;;;;;;5.35;1.92;;;;;;;14.89;100.00;101554.38;6198375;28;20043;-77
2022/07/23 01:57:29;;;;;;;2.05;1.73;;;;;;;14.87;100.00;101566.84;6199111;28;20054;-77
2022/07/23 02:00:30;;;;;;;5.72;1.75;;;;;;;14.89;100.00;101572.91;6198580;28;20053;-77
2022/07/23 02:03:31;;;;;;;5.68;1.92;;;;;;;14.91;100.00;101570.19;6199762;28;20426;-77
2022/07/23 02:06:33;;;;;;;2.80;2.05;;;;;;;14.91;100.00;101559.59;6222903;28;20053;-77
2022/07/23 02:09:35;;;;;;;5.35;1.73;;;;;;;14.91;100.00;101557.81;6222998;28;20486;-77
2022/07/23 02:12:37;;;;;;;2.92;1.50;;;;;;;14.91;100.00;101555.16;6222502;28;20061;-77
2022/07/23 02:15:38;;;;;;;3.25;2.20;;;;;;;14.92;100.00;101554.19;6222854;28;20057;-77
2022/07/23 02:18:39;;;;;;;4.30;1.48;;;;;;;14.95;100.00;101555.84;6222600;28;20439;-77
2022/07/23 02:21:41;;;;;;;5.68;2.15;;;;;;;14.97;100.00;101562.72;6222929;28;20057;-77
2022/07/23 02:24:43;;;;;;;2.47;2.13;;;;;;;14.99;100.00;101549.41;6222536;28;20409;-77
2022/07/23 02:27:45;;;;;;;3.45;1.90;;;;;;;15.00;100.00;101553.75;6222755;28;20054;-77
2022/07/23 02:30:46;;;;;;;4.55;1.80;;;;;;;15.01;100.00;101541.38;6222919;28;20516;-77
2022/07/23 02:33:47;;;;;;;2.70;1.67;;;;;;;15.03;100.00;101539.47;6221863;28;20053;-77
2022/07/23 02:36:49;;;;;;;2.30;1.60;;;;;;;15.03;100.00;101534.19;6235732;28;20065;-77
2022/07/23 02:39:52;;;;;;;6.40;2.38;;;;;;;15.06;100.00;101523.41;6227881;28;20045;-78
2022/07/23 02:42:53;;;;;;;2.45;1.90;;;;;;;15.03;100.00;101518.31;6244718;28;20049;-77
2022/07/23 02:45:55;;;;;;;3.72;1.60;;;;;;;15.02;100.00;101522.75;6251632;28;20045;-78
2022/07/23 02:48:56;;;;;;;4.88;2.22;;;;;;;14.96;100.00;101520.47;6251306;28;20516;-77
2022/07/23 02:51:58;;;;;;;3.13;1.90;;;;;;;14.94;100.00;101515.28;6235269;28;20054;-77
2022/07/23 02:55:00;;;;;;;2.33;1.67;;;;;;;14.94;100.00;101525.00;6202773;28;20395;-77
2022/07/23 02:58:02;;;;;;;2.83;1.65;;;;;;;14.93;100.00;101529.44;6205394;28;20046;-77
2022/07/23 03:01:03;;;;;;;3.05;1.88;;;;;;;14.90;100.00;101539.38;6214541;28;20045;-78
2022/07/23 03:04:05;;;;;;;1.90;1.65;;;;;;;14.85;100.00;101518.47;6223291;28;20068;-77
2022/07/23 03:07:06;;;;;;;3.00;2.28;;;;;;;14.76;100.00;101508.44;6238513;28;20048;-77
2022/07/23 03:10:09;;;;;;;5.05;2.25;;;;;;;14.71;100.00;101507.81;6250989;28;20053;-77
2022/07/23 03:13:11;;;;;;;3.15;2.17;;;;;;;14.63;100.00;101504.78;6251235;28;20056;-77
2022/07/23 03:16:12;;;;;;;3.40;2.00;;;;;;;14.56;100.00;101516.66;6250451;28;20404;-76
2022/07/23 03:19:13;;;;;;;3.40;1.95;;;;;;;14.50;100.00;101512.59;6250405;28;20076;-76
2022/07/23 03:22:15;;;;;;;4.13;2.40;;;;;;;14.50;100.00;101506.44;6250599;28;20056;-76
2022/07/23 03:25:17;;;;;;;3.70;2.72;;;;;;;14.46;100.00;101503.94;6250206;28;20052;-77
2022/07/23 03:28:19;;;;;;;3.30;2.45;;;;;;;14.46;100.00;101503.94;6250557;28;20061;-76
2022/07/23 03:31:20;;;;;;;3.45;2.13;;;;;;;14.50;100.00;101503.78;6235520;28;20046;-77
2022/07/23 03:34:22;;;;;;;3.00;2.20;;;;;;;14.51;100.00;101498.41;6201432;28;20042;-77
2022/07/23 03:37:23;;;;;;;4.32;1.90;;;;;;;14.49;100.00;101496.78;6210584;28;20057;-76
2022/07/23 03:40:26;;;;;;;3.28;2.40;;;;;;;14.47;100.00;101500.34;6211077;28;20062;-76
2022/07/23 03:43:27;;;;;;;2.97;1.95;;;;;;;14.41;100.00;101505.13;6211801;28;20427;-77
2022/07/23 03:46:28;;;;;;;3.63;2.03;;;;;;;14.35;100.00;101510.75;6217691;28;20517;-76
2022/07/23 03:49:30;;;;;;;6.20;2.95;;;;;;;14.28;100.00;101514.72;6225502;28;20060;-76
2022/07/23 03:52:31;;;;;;;3.72;2.45;;;;;;;14.30;100.00;101518.09;6225092;28;20050;-77
2022/07/23 03:55:34;;;;;;;2.72;1.90;;;;;;;14.32;100.00;101513.59;6214585;28;20046;-76
2022/07/23 03:58:35;;;;;;;2.55;1.90;;;;;;;14.33;100.00;101502.06;6211552;28;20491;-76
2022/07/23 04:01:36;;;;;;;4.20;1.73;;;;;;;14.31;100.00;101512.75;6210393;28;20410;-76
2022/07/23 04:04:38;;;;;;;2.80;2.20;;;;;;;14.25;100.00;101520.16;6210697;28;20405;-76
2022/07/23 04:07:40;;;;;;;2.92;1.50;;;;;;;14.27;100.00;101526.22;6211952;28;20053;-76
2022/07/23 04:10:42;;;;;;;3.28;2.10;;;;;;;14.27;100.00;101526.22;6210131;28;20053;-76
2022/07/23 04:13:44;;;;;;;4.78;2.22;;;;;;;14.27;100.00;101531.50;6212021;28;20481;-77
2022/07/23 04:16:45;;;;;;;2.83;2.00;;;;;;;14.21;100.00;101544.09;6212236;28;20053;-76
2022/07/23 04:19:46;;;;;;;7.97;2.38;;;;;;;14.21;100.00;101532.69;6207759;28;20071;-77
2022/07/23 04:22:48;;;;;;;7.70;3.40;;;;;;;14.21;100.00;101537.97;6200686;28;20057;-77
2022/07/23 04:25:50;;;;;;;3.83;2.47;;;;;;;14.17;100.00;101541.72;6218658;28;20049;-77
2022/07/23 04:28:52;;;;;;;2.90;2.33;;;;;;;14.15;100.00;101539.19;6236549;28;20045;-77
2022/07/23 04:31:53;;;;;;;3.60;2.60;;;;;;;14.10;100.00;101540.38;6241850;28;20060;-77
2022/07/23 04:34:54;;;;;;;2.97;2.10;;;;;;;14.11;100.00;101539.44;6235415;28;20045;-77
2022/07/23 04:37:56;;;;;;;4.80;2.53;;;;;;;14.09;100.00;101538.69;6237448;28;20056;-77
2022/07/23 04:40:58;;;;;;;2.67;2.05;;;;;;;14.07;100.00;101533.47;6240660;28;20057;-77
2022/07/23 04:44:00;;;;;;;3.92;2.58;;;;;;;14.05;100.00;101542.44;6248826;28;20496;-76
2022/07/23 04:47:01;;;;;;;3.53;2.75;;;;;;;14.01;100.00;101541.75;6243742;28;20042;-77
2022/07/23 04:50:03;;;;;;;5.50;2.90;;;;;;;14.02;100.00;101547.88;6243495;28;20057;-76
2022/07/23 04:53:04;;;;;;;4.55;3.22;;;;;;;14.03;100.00;101544.28;6248643;28;20049;-77
2022/07/23 04:56:07;;;;;;;3.17;2.70;;;;;;;14.00;100.00;101533.91;6246720;28;20409;-77
2022/07/23 04:59:08;;;;;;;4.95;3.05;;;;;;;13.97;100.00;101537.56;6231326;28;20053;-76
2022/07/23 05:02:10;;;;;;;4.38;2.95;;;;;;;14.01;100.00;101538.25;6248441;28;20057;-77
2022/07/23 05:05:11;;;;;;;5.60;3.17;;;;;;;13.96;100.00;101546.44;6248188;28;20417;-77
2022/07/23 05:08:12;;;;;;;4.38;2.53;;;;;;;13.99;100.00;101543.63;6248473;28;20045;-77
2022/07/23 05:11:15;;;;;;;3.03;2.35;;;;;;;14.04;100.00;101546.00;6244113;28;20057;-77
2022/07/23 05:14:17;;;;;;;5.97;3.42;;;;;;;14.02;100.00;101551.38;6237142;28;20045;-77
2022/07/23 05:17:18;;;;;;;9.02;2.92;;;;;;;14.07;100.00;101551.09;6247962;28;20052;-77
2022/07/23 05:20:19;;;;;;;5.60;2.92;;;;;;;14.14;100.00;101549.84;6248279;28;20065;-77
2022/07/23 05:23:21;;;;;;;5.15;3.03;;;;;;;14.17;100.00;101554.94;6248195;28;20050;-77
2022/07/23 05:26:24;;;;;;;3.75;2.22;;;;;;;14.15;100.00;101556.84;6247887;28;20041;-77
2022/07/23 05:29:25;;;;;;;3.45;2.35;;;;;;;14.16;100.00;101556.75;6212305;28;20050;-77
2022/07/23 05:32:26;;;;;;;3.35;2.10;;;;;;;14.21;100.00;101553.84;6198991;28;20050;-77
2022/07/23 05:35:28;;;;;;;4.45;2.65;;;;;;;14.26;100.00;101557.09;6198858;28;20049;-77
2022/07/23 05:38:30;;;;;;;4.20;3.03;;;;;;;14.34;100.00;101562.78;6199036;28;20057;-77
2022/07/23 05:41:33;;;;;;;3.88;2.28;;;;;;;14.38;100.00;101566.13;6198678;28;20454;-77
2022/07/23 05:44:34;;;;;;;3.53;2.20;;;;;;;14.39;100.00;101567.81;6198742;28;20054;-77
2022/07/23 05:47:43;;;;;;;4.05;2.40;;;;;;;14.41;100.00;101558.03;6199028;28;20058;-77
2022/07/23 05:50:44;;;;;;;3.33;2.83;;;;;;;14.42;100.00;101550.00;6198748;28;20054;-77
2022/07/23 05:53:45;;;;;;;4.68;2.85;;;;;;;14.47;100.00;101561.16;6198838;28;20046;-77
2022/07/23 05:56:50;;;;;;;5.32;2.15;;;;;;;14.41;100.00;101576.53;6199565;28;20065;-77
2022/07/23 05:59:51;;;;;;;4.10;1.77;;;;;;;14.41;100.00;101576.53;6198732;28;20054;-77
2022/07/23 06:02:52;;;;;;;6.15;2.03;;;;;;;14.52;100.00;101582.09;6198616;28;20462;-77
2022/07/23 06:05:54;;;;;;;6.93;2.10;;;;;;;14.54;100.00;101568.81;6198212;28;20479;-76
2022/07/23 06:08:55;;;;;;;2.42;1.70;;;;;;;14.57;100.00;101565.97;6198469;28;20391;-78
2022/07/23 06:11:58;;;;;;;2.20;1.67;;;;;;;14.61;100.00;101573.63;6198604;28;20050;-78
2022/07/23 06:15:00;;;;;;;2.10;1.85;;;;;;;14.63;100.00;101573.56;6198555;28;20518;-78
2022/07/23 06:18:01;;;;;;;2.80;1.63;;;;;;;14.66;100.00;101576.03;6198554;28;20391;-78
2022/07/23 06:21:02;;;;;;;1.92;1.65;;;;;;;14.74;100.00;101570.31;6198306;28;20050;-78
2022/07/23 06:24:04;;;;;;;2.13;1.67;;;;;;;14.71;100.00;101576.59;6198276;28;20050;-78
2022/07/23 06:27:07;;;;;;;1.83;1.20;;;;;;;14.76;100.00;101579.88;6199624;28;20058;-78
2022/07/23 06:30:10;;;;;;;3.47;1.35;;;;;;;14.78;100.00;101577.97;6198338;28;20055;-78
2022/07/23 06:33:12;;;;;;;2.08;1.60;;;;;;;14.85;100.00;101589.03;6198620;28;20486;-78
2022/07/23 06:36:13;;;;;;;6.43;1.70;;;;;;;14.89;100.00;101585.28;6229662;28;20038;-78
2022/07/23 06:39:14;;;;;;;7.47;1.60;;;;;;;14.91;100.00;101586.06;6232606;28;20425;-78
2022/07/23 06:42:17;;;;;;;2.35;1.42;;;;;;;14.98;100.00;101595.34;6244008;28;20075;-79
2022/07/23 06:45:18;;;;;;;8.73;2.05;;;;;;;15.04;100.00;101599.44;6246880;28;20055;-78
2022/07/23 06:48:20;;;;;;;1.92;1.55;;;;;;;15.13;100.00;101610.34;6235607;28;20049;-78
2022/07/23 06:51:21;;;;;;;3.90;1.60;;;;;;;15.28;100.00;101610.38;6244448;28;20049;-78
2022/07/23 06:54:23;;;;;;;2.45;2.03;;;;;;;15.42;100.00;101602.47;6247108;28;20134;-78
2022/07/23 06:57:26;;;;;;;3.45;1.75;;;;;;;15.48;100.00;101604.72;6205245;28;20051;-78
2022/07/23 07:00:27;;;;;;;3.00;1.85;;;;;;;15.50;100.00;101609.97;6214815;28;20053;-78
2022/07/23 07:03:29;;;;;;;4.15;2.00;;;;;;;15.59;100.00;101604.94;6238754;28;20424;-79
2022/07/23 07:06:30;;;;;;;1.45;1.30;;;;;;;15.72;100.00;101594.50;6246970;28;20053;-78
2022/07/23 07:09:32;;;;;;;2.85;1.83;;;;;;;15.81;100.00;101604.53;6247100;28;20060;-77
2022/07/23 07:12:34;;;;;;;5.50;1.92;;;;;;;15.80;100.00;101597.50;6244483;28;20056;-78
2022/07/23 07:15:36;;;;;;;8.50;1.88;;;;;;;15.83;100.00;101605.28;6222200;28;20513;-78
2022/07/23 07:18:37;;;;;;;4.78;1.45;;;;;;;15.85;100.00;101607.81;6225295;28;20049;-78
2022/07/23 07:21:39;;;;;;;4.15;1.58;;;;;;;15.85;100.00;101605.16;6225910;28;20403;-79
2022/07/23 07:24:40;;;;;;;1.95;1.45;;;;;;;15.91;100.00;101613.59;6224719;28;20054;-78
2022/07/23 07:27:44;;;;;;;5.70;1.33;;;;;;;15.97;100.00;101617.69;6234928;28;20050;-78
2022/07/23 07:30:45;;;;;;;1.75;1.20;;;;;;;15.95;100.00;101608.97;6250868;28;20507;-77
2022/07/23 07:33:47;;;;;;;1.85;1.42;;;;;;;15.92;100.00;101612.66;6251760;28;20053;-78
2022/07/23 07:36:49;;;;;;;1.50;1.40;;;;;;;15.98;100.00;101606.97;6250341;28;20049;-77
2022/07/23 07:39:51;;;;;;;1.27;1.15;;;;;;;16.11;100.00;101608.84;6224808;28;20410;-77
2022/07/23 07:42:56;;;;;;;2.38;1.60;;;;;;;16.24;100.00;101605.34;6242158;28;20050;-77
2022/07/23 07:45:58;;;;;;;3.75;1.35;;;;;;;16.30;100.00;101614.69;6225683;28;20054;-77
2022/07/23 07:49:00;;;;;;;1.33;1.23;;;;;;;16.26;100.00;101612.34;6222104;28;20151;-77
2022/07/23 07:52:01;;;;;;;1.63;1.20;;;;;;;16.18;100.00;101607.53;6212555;28;20421;-77
2022/07/23 07:55:04;;;;;;;1.98;1.30;;;;;;;16.25;100.00;101611.47;6212121;28;20513;-76
2022/07/23 07:58:07;;;;;;;1.70;1.20;;;;;;;16.38;100.00;101612.41;6210588;28;20046;-76
2022/07/23 08:01:08;;;;;;;3.50;0.98;;;;;;;16.45;100.00;101615.53;6211678;28;20046;-76
2022/07/23 08:04:09;;;;;;;0.82;0.80;;;;;;;16.49;100.00;101620.56;6212454;28;20064;-76
2022/07/23 08:07:11;;;;;;;1.83;1.00;;;;;;;16.43;100.00;101610.31;6222370;28;20056;-76
2022/07/23 08:10:12;;;;;;;1.58;1.02;;;;;;;16.46;100.00;101615.44;6224594;28;20053;-76
2022/07/23 08:13:16;;;;;;;3.20;1.08;;;;;;;16.51;100.00;101630.22;6224638;28;20053;-76
2022/07/23 08:16:18;;;;;;;1.88;0.90;;;;;;;16.49;100.00;101627.66;6224044;28;20045;-76
2022/07/23 08:19:19;;;;;;;4.43;0.98;;;;;;;16.53;100.00;101626.50;6230192;28;20049;-77
2022/07/23 08:22:20;;;;;;;3.25;0.90;;;;;;;16.58;100.00;101631.50;6239153;28;20420;-79
2022/07/23 08:25:23;;;;;;;1.58;0.80;;;;;;;16.71;100.00;101624.44;6202051;28;20054;-77
2022/07/23 08:28:26;;;;;;;1.27;0.90;;;;;;;16.91;100.00;101629.34;6199207;28;20065;-76
2022/07/23 08:31:27;;;;;;;3.40;0.88;;;;;;;16.99;99.09;101624.41;6199711;28;20405;-77
2022/07/23 08:34:28;;;;;;;1.70;1.02;;;;;;;17.01;93.51;101620.78;6200074;28;20142;-77
2022/07/23 08:37:30;;;;;;;1.58;0.90;;;;;;;16.91;94.63;101626.69;6199657;28;20410;-77
2022/07/23 08:40:33;;;;;;;1.65;0.65;;;;;;;16.81;92.92;101644.19;6199924;28;20395;-76
2022/07/23 08:43:36;;;;;;;0.60;0.60;;;;;;;16.73;94.84;101634.06;6199773;28;20058;-77
2022/07/23 08:46:39;;;;;;;2.28;0.85;;;;;;;16.82;96.27;101635.28;6199870;28;20049;-77
2022/07/23 08:49:42;;;;;;;1.25;1.15;;;;;;;16.91;92.27;101633.81;6199485;28;20055;-77
2022/07/23 08:52:44;;;;;;;4.55;1.05;;;;;;;17.10;92.56;101639.59;6200766;28;20050;-77
2022/07/23 08:55:46;;;;;;;6.05;0.70;;;;;;;17.25;92.81;101641.22;6199539;28;20050;-76
2022/07/23 08:58:49;;;;;;;0.85;0.77;;;;;;;17.20;90.95;101634.53;6199206;28;20053;-77
2022/07/23 09:01:50;;;;;;;0.68;0.63;;;;;;;17.18;92.82;101639.97;6199736;28;20062;-76
2022/07/23 09:04:52;;;;;;;2.03;0.65;;;;;;;17.21;91.05;101634.44;6198950;28;20050;-76
2022/07/23 09:08:05;;;;;;;1.35;0.60;;;;;;;17.24;87.76;101642.19;6199530;28;20046;-76
2022/07/23 09:11:09;;;;;;;0.95;0.75;;;;;;;17.37;85.43;101631.59;6198869;28;20058;-77
2022/07/23 09:14:12;;;;;;;0.60;0.60;;;;;;;17.37;86.90;101631.59;6199204;28;20068;-76
2022/07/23 09:17:16;;;;;;;1.48;0.95;;;;;;;17.43;86.97;101635.63;6198694;28;20057;-77
2022/07/23 09:20:18;;;;;;;1.10;0.50;;;;;;;17.61;82.78;101630.88;6199284;28;20061;-77
2022/07/23 09:23:19;;;;;;;0.88;0.75;;;;;;;17.77;81.30;101636.88;6200454;28;20069;-76
2022/07/23 09:26:29;;;;;;;0.98;0.65;;;;;;;17.81;79.67;101635.72;6199396;28;20046;-77
2022/07/23 09:29:32;;;;;;;1.25;0.80;;;;;;;17.73;79.89;101641.53;6199602;28;20050;-78
2022/07/23 09:32:33;;;;;;;0.70;0.70;;;;;;;17.70;81.30;101630.22;6200321;28;20070;-78
2022/07/23 09:35:48;;;;;;;2.05;0.80;;;;;;;17.58;79.37;101636.41;6203498;28;20045;-78
2022/07/23 09:38:51;;;;;;;2.63;0.70;;;;;;;17.46;82.46;101628.31;6211343;28;20050;-77
2022/07/23 09:41:52;;;;;;;0.80;0.80;;;;;;;17.45;81.59;101629.28;6208531;28;20054;-77
2022/07/23 09:44:56;;;;;;;0.82;0.75;;;;;;;17.62;82.44;101633.44;6210639;28;20050;-77
2022/07/23 09:48:11;;;;;;;0.88;0.65;;;;;;;17.80;77.69;101631.31;6209632;28;20054;-77
2022/07/23 09:51:12;;;;;;;0.40;0.40;;;;;;;17.98;76.85;101626.53;6211233;28;20054;-77
2022/07/23 09:54:30;;;;;;;0.40;0.40;;;;;;;18.16;74.16;101622.56;6216881;28;20054;-78
2022/07/23 09:57:32;;;;;;;4.38;0.90;;;;;;;18.29;75.57;101613.72;6199237;28;20050;-77
2022/07/23 10:00:36;;;;;;;0.95;0.43;;;;;;;18.22;71.93;101629.28;6198711;28;20188;-78
2022/07/23 10:03:38;;;;;;;5.38;0.60;;;;;;;18.19;67.83;101624.16;6219191;28;20050;-79
2022/07/23 10:06:41;;;;;;;0.35;0.35;;;;;;;18.14;71.45;101628.97;6231809;28;20042;-78
2022/07/23 10:09:43;;;;;;;0.63;0.50;;;;;;;18.13;72.69;101630.78;6239117;28;20446;-73
2022/07/23 10:16:10;;;;;;;0.40;0.40;;;;;;;18.09;74.13;101637.28;6222139;28;20046;-77
2022/07/23 10:19:12;;;;;;;0.30;0.30;;;;;;;18.15;74.54;101639.50;6223661;28;20057;-78
2022/07/23 10:22:16;;;;;;;0.47;0.47;;;;;;;18.34;72.41;101632.84;6234184;28;20049;-76
2022/07/23 10:25:26;;;;;;;1.48;0.50;;;;;;;18.55;72.85;101638.44;6232849;28;20089;-77
2022/07/23 10:28:47;;;;;;;0.95;0.75;;;;;;;18.78;71.36;101634.13;6245178;28;20053;-77
2022/07/23 10:31:59;;;;;;;0.45;0.40;;;;;;;18.66;70.74;101642.00;6238615;28;20056;-78
2022/07/23 10:35:10;;;;;;;0.50;0.50;;;;;;;18.59;70.61;101637.25;6246805;28;20049;-76
2022/07/23 10:38:17;;;;;;;0.40;0.38;;;;;;;18.61;68.81;101644.16;6246637;28;20057;-77
2022/07/23 10:41:32;;;;;;;0.98;0.57;;;;;;;18.78;67.61;101631.47;6246645;28;20069;-76
2022/07/23 10:44:40;;;;;;;0.30;0.30;;;;;;;18.71;65.20;101636.38;6246432;28;20053;-77
2022/07/23 10:47:43;;;;;;;1.58;0.50;;;;;;;18.64;66.18;101630.63;6246660;28;20056;-77
2022/07/23 10:51:06;;;;;;;1.42;0.60;;;;;;;18.62;67.62;101639.69;6227876;28;20524;-76
2022/07/23 10:54:21;;;;;;;0.35;0.35;;;;;;;18.55;66.06;101635.78;6226143;28;20046;-76
2022/07/23 10:57:24;;;;;;;0.70;0.60;;;;;;;18.68;68.88;101634.78;6224149;28;20046;-76
2022/07/23 11:00:28;;;;;;;0.30;0.30;;;;;;;18.96;64.69;101630.94;6240791;28;20056;-76
2022/07/23 11:03:36;;;;;;;1.45;0.57;;;;;;;19.23;64.21;101632.50;6210768;28;20415;-76
2022/07/23 11:07:11;;;;;;;0.38;0.38;;;;;;;19.59;63.10;101631.53;6213575;28;20180;-72
2022/07/23 11:10:33;;;;;;;0.40;0.40;;;;;;;19.71;61.04;101643.94;6226033;28;20050;-73
2022/07/23 11:13:48;;;;;;;0.40;0.40;;;;;;;19.49;60.93;101635.88;6226056;28;20049;-73
2022/07/23 11:16:56;;;;;;;0.40;0.38;;;;;;;19.32;63.04;101638.97;6226210;28;20409;-76
2022/07/23 11:20:22;;;;;;;1.05;0.30;;;;;;;19.63;62.18;101635.69;6209095;28;20058;-76
2022/07/23 11:23:24;;;;;;;0.73;0.50;;;;;;;19.92;62.90;101636.06;6202227;28;20065;-76
2022/07/23 11:26:47;;;;;;;0.30;0.30;;;;;;;20.09;63.73;101637.41;6201377;28;20058;-77
2022/07/23 11:29:52;;;;;;;0.28;0.28;;;;;;;19.98;63.45;101634.72;6201460;28;20061;-73
2022/07/23 11:32:55;;;;;;;0.57;0.25;;;;;;;19.89;65.58;101633.63;6201624;28;20532;-76
2022/07/23 11:36:04;;;;;;;1.17;0.50;;;;;;;20.37;63.48;101633.38;6201446;28;20054;-76
2022/07/23 11:39:07;;;;;;;0.57;0.50;;;;;;;20.85;59.91;101627.72;6201035;28;20434;-74
2022/07/23 11:42:09;;;;;;;0.70;0.25;;;;;;;21.39;56.93;101626.78;6201148;28;20076;-75
2022/07/23 11:45:10;;;;;;;0.85;0.30;;;;;;;21.72;56.49;101624.84;6200980;28;20410;-76
2022/07/23 11:48:17;;;;;;;0.43;0.43;;;;;;;21.98;53.10;101631.47;6202663;28;20058;-76
2022/07/23 11:51:27;;;;;;;0.50;0.28;;;;;;;22.26;54.57;101621.03;6238474;28;20049;-76
2022/07/23 11:54:28;;;;;;;;;;;;;;;22.64;57.72;101620.25;6241794;28;20055;-75
2022/07/23 11:57:31;;;;;;;0.52;0.30;;;;;;;22.94;53.96;101618.50;6249747;28;20403;-76
2022/07/23 12:00:33;;;;;;;0.30;0.30;;;;;;;22.89;52.14;101626.03;6249575;28;20045;-76
2022/07/23 12:03:35;;;;;;;0.60;0.30;;;;;;;22.70;51.04;101624.19;6247068;28;20050;-75
2022/07/23 12:06:39;;;;;;;1.95;0.43;;;;;;;22.02;51.79;101615.97;6222817;28;20520;-76
2022/07/23 12:09:45;;;;;;;0.20;0.20;;;;;;;21.64;54.57;101616.63;6238880;28;20053;-76
2022/07/23 12:12:49;;;;;;;0.82;0.50;;;;;;;22.25;53.71;101620.16;6241254;28;20041;-75
2022/07/23 12:15:52;;;;;;;1.58;0.40;;;;;;;22.01;54.16;101627.66;6224531;28;20057;-74
2022/07/23 12:18:55;;;;;;;0.30;0.30;;;;;;;22.33;55.45;101629.34;6227216;28;20057;-77
2022/07/23 12:21:58;;;;;;;0.38;0.38;;;;;;;;;;6238366;28;20138;-77
2022/07/23 12:25:02;;;;;;;0.30;0.30;;;;;;;21.60;58.32;101625.91;6243450;28;20058;-77
2022/07/23 12:28:07;;;;;;;1.85;0.40;;;;;;;22.30;54.21;101622.41;6238410;28;20572;-77
2022/07/23 12:31:09;;;;;;;0.65;0.28;;;;;;;22.63;53.37;101618.56;6249303;28;20085;-77
2022/07/23 12:34:15;;;;;;;0.80;0.30;;;;;;;22.26;55.03;101611.16;6245839;28;20072;-75
2022/07/23 12:37:32;;;;;;;2.65;0.50;;;;;;;22.02;54.34;101621.31;6240243;28;20049;-75
2022/07/23 12:40:36;;;;;;;0.30;0.30;;;;;;;21.86;54.78;101632.53;6231290;28;20421;-77
2022/07/23 12:43:39;;;;;;;0.70;0.40;;;;;;;21.55;55.85;101630.81;6224145;28;20053;-77
2022/07/23 12:46:41;;;;;;;1.70;0.47;;;;;;;21.67;59.53;101619.91;6222156;28;20521;-77
2022/07/23 12:49:42;;;;;;;0.52;0.50;;;;;;;22.44;53.75;101630.09;6224093;28;20421;-76
2022/07/23 12:52:45;;;;;;;0.90;0.40;;;;;;;22.97;52.29;101632.44;6240132;28;20046;-76
2022/07/23 12:55:47;;;;;;;0.40;0.40;;;;;;;23.57;52.38;101617.97;6227083;28;20050;-77
2022/07/23 12:58:50;;;;;;;0.30;0.30;;;;;;;23.51;49.51;101630.13;6225500;28;20046;-76
2022/07/23 13:01:57;;;;;;;0.90;0.60;;;;;;;22.66;51.33;101629.00;6223417;28;20053;-75
2022/07/23 13:04:59;;;;;;;0.40;0.40;;;;;;;22.20;53.58;101635.78;6223519;28;20410;-75
2022/07/23 13:08:02;;;;;;;1.75;0.35;;;;;;;21.87;53.94;101641.41;6223295;28;20046;-72
2022/07/23 13:11:04;;;;;;;0.57;0.50;;;;;;;21.67;55.14;101643.97;6223116;28;20076;-75
2022/07/23 13:14:06;;;;;;;0.30;0.30;;;;;;;21.62;54.75;101638.19;6222980;28;20512;-76
2022/07/23 13:17:08;;;;;;;5.78;1.40;;;;;;;21.37;55.94;101641.25;6203364;28;20053;-75
2022/07/23 13:20:10;;;;;;;0.40;0.40;;;;;;;21.42;54.11;101639.88;6198895;28;20050;-75
2022/07/23 13:23:13;;;;;;;0.35;0.32;;;;;;;21.25;54.39;101638.56;6199108;28;20050;-75
2022/07/23 13:26:14;;;;;;;0.82;0.40;;;;;;;21.28;55.56;101638.31;6198392;28;20414;-76
2022/07/23 13:29:15;;;;;;;0.63;0.20;;;;;;;22.03;54.21;101636.41;6198485;28;20077;-75
2022/07/23 13:32:17;;;;;;;0.35;0.35;;;;;;;22.88;49.25;101633.25;6209987;28;20048;-74
2022/07/23 13:35:18;;;;;;;0.40;0.30;;;;;;;23.32;46.81;101620.28;6218828;28;20065;-76
2022/07/23 13:38:22;;;;;;;0.52;0.20;;;;;;;23.04;45.22;101625.53;6222613;28;20049;-75
2022/07/23 13:41:23;;;;;;;0.60;0.32;;;;;;;22.38;48.50;101632.47;6222641;28;20057;-76
2022/07/23 13:44:25;;;;;;;1.60;0.40;;;;;;;22.16;48.29;101633.50;6222143;28;20057;-76
2022/07/23 13:47:26;;;;;;;0.20;0.20;;;;;;;21.96;48.02;101627.22;6222514;28;20572;-76
2022/07/23 13:50:27;;;;;;;1.00;0.22;;;;;;;21.90;50.16;101635.78;6222199;28;20050;-76
2022/07/23 13:53:30;;;;;;;0.47;0.30;;;;;;;22.01;50.09;101627.66;6222773;28;20423;-75
2022/07/23 13:56:31;;;;;;;0.32;0.32;;;;;;;22.08;49.98;101626.16;6222201;28;20045;-75
2022/07/23 13:59:33;;;;;;;2.97;0.45;;;;;;;21.86;50.87;101624.50;6222269;28;20386;-75
2022/07/23 14:02:36;;;;;;;0.47;0.30;;;;;;;21.94;49.54;101634.53;6233476;28;20048;-75
2022/07/23 14:05:38;;;;;;;0.13;0.13;;;;;;;22.30;50.74;101627.78;6219541;28;20045;-73
2022/07/23 14:08:40;;;;;;;0.22;0.22;;;;;;;22.20;48.36;101630.44;6225608;28;20046;-76
2022/07/23 14:11:42;;;;;;;0.47;0.22;;;;;;;22.16;49.97;101630.84;6230878;28;20042;-76